createdAt,value
2018-07-07T09:03:07.917Z,25.40
2018-07-07T09:05:36.057Z,25.40
2018-07-07T09:08:04.521Z,25.60
2018-07-07T09:10:33.788Z,25.80
2018-07-07T09:13:01.910Z,26.00
2018-07-07T09:15:30.153Z,26.10
2018-07-07T09:17:58.300Z,26.20
2018-07-07T09:20:26.429Z,26.40
2018-07-07T09:22:54.640Z,26.40
2018-07-07T09:25:22.836Z,26.40
2018-07-07T09:27:50.957Z,26.30
2018-07-07T09:30:19.077Z,26.30
2018-07-07T09:32:47.222Z,26.40
2018-07-07T09:35:15.354Z,26.60
2018-07-07T09:37:43.481Z,26.70
2018-07-07T09:40:12.075Z,26.80
2018-07-07T09:42:40.201Z,27.00
2018-07-07T09:45:08.328Z,27.20
2018-07-07T09:47:36.509Z,27.20
2018-07-07T09:50:04.681Z,27.30
2018-07-07T09:52:32.805Z,27.40
2018-07-07T09:55:00.951Z,27.50
2018-07-07T09:57:29.068Z,27.60
2018-07-07T09:59:57.220Z,27.80
2018-07-07T10:02:25.381Z,28.00
2018-07-07T10:04:53.488Z,28.10
2018-07-07T10:07:21.644Z,28.30
2018-07-07T10:09:49.769Z,28.30
2018-07-07T10:12:17.960Z,28.30
2018-07-07T10:14:46.081Z,28.20
2018-07-07T10:17:14.254Z,28.20
2018-07-07T10:19:42.393Z,28.40
2018-07-07T10:22:10.524Z,28.60
2018-07-07T10:24:38.664Z,28.70
2018-07-07T10:27:06.781Z,28.70
2018-07-07T10:29:34.952Z,28.70
2018-07-07T10:32:03.915Z,28.50
2018-07-07T10:34:32.072Z,28.20
2018-07-07T10:37:00.208Z,28.00
2018-07-07T10:39:28.522Z,27.90
2018-07-07T10:41:58.117Z,28.00
2018-07-07T10:44:26.280Z,28.10
2018-07-07T10:46:54.413Z,28.20
2018-07-07T10:49:22.537Z,28.40
2018-07-07T10:51:51.777Z,28.70
2018-07-07T10:54:19.921Z,28.90
2018-07-07T10:56:48.041Z,29.00
2018-07-07T10:59:16.190Z,29.10
2018-07-07T11:01:44.331Z,29.00
2018-07-07T11:04:13.144Z,28.80
2018-07-07T11:06:41.269Z,28.70
2018-07-07T11:09:09.875Z,28.70
2018-07-07T11:11:38.058Z,28.60
2018-07-07T11:14:06.178Z,28.80
2018-07-07T11:16:34.344Z,29.00
2018-07-07T11:19:02.510Z,29.20
2018-07-07T11:21:30.660Z,29.50
2018-07-07T11:23:58.778Z,29.70
2018-07-07T11:26:26.901Z,29.80
2018-07-07T11:28:55.044Z,29.90
2018-07-07T11:31:23.180Z,30.00
2018-07-07T11:33:51.316Z,30.10
2018-07-07T11:36:19.545Z,30.20
2018-07-07T11:38:47.610Z,30.20
2018-07-07T11:41:18.338Z,30.30
2018-07-07T11:43:46.993Z,30.30
2018-07-07T11:46:15.149Z,30.20
2018-07-07T11:48:43.414Z,30.00
2018-07-07T11:51:12.244Z,29.80
2018-07-07T11:53:40.393Z,29.70
2018-07-07T11:56:08.585Z,29.70
2018-07-07T11:58:36.760Z,29.80
2018-07-07T12:01:04.902Z,29.80
2018-07-07T12:03:33.129Z,29.80
2018-07-07T12:06:01.254Z,29.80
2018-07-07T12:08:29.415Z,29.80
2018-07-07T12:10:57.528Z,29.70
2018-07-07T12:13:25.718Z,29.80
2018-07-07T12:15:53.870Z,29.90
2018-07-07T12:18:22.852Z,30.10
2018-07-07T12:20:51.965Z,30.20
2018-07-07T12:23:20.170Z,30.20
2018-07-07T12:25:48.337Z,30.30
2018-07-07T12:28:16.462Z,30.30
2018-07-07T12:30:44.841Z,30.30
2018-07-07T12:33:12.981Z,30.20
2018-07-07T12:35:41.108Z,30.10
2018-07-07T12:38:09.221Z,30.00
2018-07-07T12:40:37.409Z,29.90
2018-07-07T12:43:05.521Z,29.70
2018-07-07T12:45:44.421Z,29.60
2018-07-07T12:48:12.548Z,29.60
2018-07-07T12:50:40.664Z,29.70
2018-07-07T12:53:08.804Z,29.70
2018-07-07T12:55:36.935Z,29.80
2018-07-07T12:58:05.452Z,30.00
2018-07-07T13:00:33.651Z,30.20
2018-07-07T13:03:02.221Z,30.10
2018-07-07T13:05:30.667Z,30.10
2018-07-07T13:07:58.803Z,30.20
2018-07-07T13:10:27.144Z,30.20
2018-07-07T13:12:55.263Z,30.20
2018-07-07T13:15:23.382Z,30.10
2018-07-07T13:17:51.500Z,30.00
2018-07-07T13:20:19.639Z,29.90
2018-07-07T13:22:47.756Z,29.90
2018-07-07T13:25:15.901Z,30.00
2018-07-07T13:27:44.044Z,30.10
2018-07-07T13:30:12.173Z,30.20
2018-07-07T13:32:40.314Z,30.20
2018-07-07T13:35:08.445Z,30.10
2018-07-07T13:37:36.562Z,29.90
2018-07-07T13:40:04.722Z,29.90
2018-07-07T13:42:32.872Z,29.80
2018-07-07T13:45:00.989Z,29.70
2018-07-07T13:47:29.157Z,29.60
2018-07-07T13:49:57.278Z,29.50
2018-07-07T13:52:25.402Z,29.30
2018-07-07T13:54:53.541Z,29.20
2018-07-07T13:57:21.669Z,29.10
2018-07-07T13:59:49.785Z,29.10
2018-07-07T14:02:18.098Z,29.00
2018-07-07T14:04:46.280Z,29.00
2018-07-07T14:07:14.399Z,29.00
2018-07-07T14:09:43.057Z,29.00
2018-07-07T14:12:11.181Z,29.00
2018-07-07T14:14:39.317Z,28.90
2018-07-07T14:17:07.528Z,28.90
2018-07-07T14:19:35.692Z,28.90
2018-07-07T14:22:03.849Z,28.90
2018-07-07T14:24:31.983Z,28.80
2018-07-07T14:27:00.123Z,28.80
2018-07-07T14:29:28.271Z,28.90
2018-07-07T14:31:56.462Z,29.00
2018-07-07T14:34:24.565Z,29.00
2018-07-07T14:36:53.406Z,28.90
2018-07-07T14:39:41.974Z,28.90
2018-07-07T14:43:13.567Z,28.80
2018-07-07T14:45:51.936Z,28.90
2018-07-07T14:48:20.091Z,28.90
2018-07-07T14:50:48.225Z,29.00
2018-07-07T14:53:16.383Z,29.10
2018-07-07T14:55:46.500Z,29.10
2018-07-07T14:58:14.676Z,29.00
2018-07-07T15:00:42.782Z,28.90
2018-07-07T15:03:10.923Z,28.90
2018-07-07T15:05:39.093Z,28.80
2018-07-07T15:08:07.231Z,28.80
2018-07-07T15:10:35.367Z,28.70
2018-07-07T15:13:03.511Z,28.70
2018-07-07T15:15:31.705Z,28.80
2018-07-07T15:17:59.794Z,28.90
2018-07-07T15:20:27.937Z,28.90
2018-07-07T15:22:56.133Z,28.90
2018-07-07T15:25:24.228Z,29.00
2018-07-07T15:27:52.377Z,29.10
2018-07-07T15:30:20.538Z,29.20
2018-07-07T15:32:48.675Z,29.40
2018-07-07T15:35:16.828Z,29.50
2018-07-07T15:37:45.079Z,29.50
2018-07-07T15:40:13.849Z,29.50
2018-07-07T15:42:46.528Z,29.50
2018-07-07T15:45:14.620Z,29.40
2018-07-07T15:47:42.748Z,29.40
2018-07-07T15:50:10.890Z,29.40
2018-07-07T15:52:39.045Z,29.40
2018-07-07T15:55:07.205Z,29.50
2018-07-07T15:57:35.396Z,29.70
2018-07-07T16:00:03.760Z,29.70
2018-07-07T16:02:31.911Z,29.70
2018-07-07T16:05:00.097Z,29.40
2018-07-07T16:07:28.231Z,29.30
2018-07-07T16:09:56.439Z,29.30
2018-07-07T16:12:24.555Z,29.20
2018-07-07T16:14:52.676Z,29.20
2018-07-07T16:17:20.809Z,29.20
2018-07-07T16:19:48.970Z,29.10
2018-07-07T16:22:17.082Z,29.10
2018-07-07T16:24:45.211Z,29.00
2018-07-07T16:27:13.411Z,29.00
2018-07-07T16:29:41.523Z,28.90
2018-07-07T16:32:09.647Z,28.80
2018-07-07T16:34:37.839Z,28.80
2018-07-07T16:37:06.150Z,28.80
2018-07-07T16:39:34.262Z,28.80
2018-07-07T16:42:03.275Z,28.80
2018-07-07T16:44:31.742Z,28.70
2018-07-07T16:47:00.921Z,28.70
2018-07-07T16:49:29.057Z,28.60
2018-07-07T16:51:59.289Z,28.60
2018-07-07T16:54:27.424Z,28.60
2018-07-07T16:56:55.562Z,28.70
2018-07-07T16:59:23.853Z,28.70
2018-07-07T17:01:52.601Z,28.60
2018-07-07T17:04:21.019Z,28.50
2018-07-07T17:06:49.466Z,28.50
2018-07-07T17:09:19.088Z,28.50
2018-07-07T17:11:47.597Z,28.40
2018-07-07T17:14:15.722Z,28.40
2018-07-07T17:16:44.833Z,28.50
2018-07-07T17:19:14.420Z,28.50
2018-07-07T17:21:43.117Z,28.50
2018-07-07T17:24:11.242Z,28.60
2018-07-07T17:26:40.487Z,28.50
2018-07-07T17:29:08.878Z,28.50
2018-07-07T17:31:37.047Z,28.50
2018-07-07T17:34:05.200Z,28.40
2018-07-07T17:36:33.487Z,28.40
2018-07-07T17:39:01.609Z,28.40
2018-07-07T17:41:29.773Z,28.40
2018-07-07T17:44:08.929Z,28.40
2018-07-07T17:46:37.686Z,28.40
2018-07-07T17:49:05.818Z,28.40
2018-07-07T17:51:34.541Z,28.40
2018-07-07T17:54:02.687Z,28.40
2018-07-07T17:56:30.837Z,28.40
2018-07-07T17:58:59.405Z,28.40
2018-07-07T18:01:27.573Z,28.40
2018-07-07T18:03:56.113Z,28.30
2018-07-07T18:06:24.241Z,28.20
2018-07-07T18:08:52.396Z,28.10
2018-07-07T18:11:20.561Z,28.00
2018-07-07T18:13:48.778Z,28.00
2018-07-07T18:16:16.997Z,27.90
2018-07-07T18:18:45.119Z,27.90
2018-07-07T18:21:13.290Z,27.80
2018-07-07T18:23:41.404Z,27.80
2018-07-07T18:26:09.533Z,27.70
2018-07-07T18:28:38.078Z,27.60
2018-07-07T18:31:06.225Z,27.50
2018-07-07T18:33:34.371Z,27.40
2018-07-07T18:36:02.785Z,27.30
2018-07-07T18:38:30.932Z,27.20
2018-07-07T18:40:59.799Z,27.20
2018-07-07T18:43:28.041Z,27.10
2018-07-07T18:45:57.076Z,27.10
2018-07-07T18:48:25.205Z,27.00
2018-07-07T18:50:53.397Z,26.90
2018-07-07T18:53:21.513Z,26.90
2018-07-07T18:55:49.648Z,26.80
2018-07-07T18:58:17.832Z,26.80
2018-07-07T19:00:45.956Z,26.70
2018-07-07T19:03:14.078Z,26.60
2018-07-07T19:05:42.220Z,26.50
2018-07-07T19:08:10.359Z,26.40
2018-07-07T19:10:38.494Z,26.30
2018-07-07T19:13:06.768Z,26.30
2018-07-07T19:15:34.897Z,26.20
2018-07-07T19:18:03.039Z,26.20
2018-07-07T19:20:36.494Z,26.10
2018-07-07T19:23:10.037Z,26.00
2018-07-07T19:25:43.585Z,25.80
2018-07-07T19:28:11.722Z,25.70
2018-07-07T19:30:40.436Z,25.50
2018-07-07T19:33:13.849Z,25.40
2018-07-07T19:35:47.392Z,25.20
2018-07-07T19:38:16.037Z,25.10
2018-07-07T19:40:44.180Z,25.00
2018-07-07T19:43:12.775Z,24.90
2018-07-07T19:45:40.907Z,24.80
2018-07-07T19:48:10.065Z,24.80
2018-07-07T19:50:38.217Z,24.90
2018-07-07T19:53:06.388Z,24.90
2018-07-07T19:55:34.555Z,24.90
2018-07-07T19:58:02.679Z,24.90
2018-07-07T20:00:30.824Z,24.90
2018-07-07T20:02:58.956Z,24.80
2018-07-07T20:05:27.122Z,24.80
2018-07-07T20:07:55.288Z,24.80
2018-07-07T20:13:01.845Z,24.70
2018-07-07T20:15:41.462Z,24.70
2018-07-07T20:18:10.834Z,24.70
2018-07-07T20:20:44.383Z,24.70
2018-07-07T20:23:13.776Z,24.80
2018-07-07T20:25:42.011Z,24.70
2018-07-07T20:28:15.598Z,24.70
2018-07-07T20:30:43.739Z,24.70
2018-07-07T20:33:11.931Z,24.60
2018-07-07T20:35:40.205Z,24.60
2018-07-07T20:38:08.340Z,24.50
2018-07-07T20:40:36.474Z,24.50
2018-07-07T20:43:05.521Z,24.40
2018-07-07T20:45:33.678Z,24.40
2018-07-07T20:48:01.807Z,24.30
2018-07-07T20:50:30.353Z,24.20
2018-07-07T20:52:58.538Z,24.20
2018-07-07T20:55:26.667Z,24.20
2018-07-07T20:57:54.841Z,24.10
2018-07-07T21:00:22.961Z,24.20
2018-07-07T21:02:51.085Z,24.10
2018-07-07T21:05:19.250Z,24.10
2018-07-07T21:07:47.410Z,24.00
2018-07-07T21:10:15.661Z,24.00
2018-07-07T21:12:43.814Z,24.00
2018-07-07T21:15:11.966Z,24.00
2018-07-07T21:17:40.109Z,24.00
2018-07-07T21:20:08.342Z,24.00
2018-07-07T21:22:36.472Z,23.90
2018-07-07T21:25:04.609Z,24.00
2018-07-07T21:27:32.750Z,24.00
2018-07-07T21:30:00.885Z,24.00
2018-07-07T21:32:29.138Z,23.90
2018-07-07T21:34:57.301Z,23.90
2018-07-07T21:37:25.473Z,23.90
2018-07-07T21:39:53.664Z,23.90
2018-07-07T21:42:22.179Z,23.90
2018-07-07T21:44:50.338Z,23.90
2018-07-07T21:47:18.491Z,23.80
2018-07-07T21:49:46.624Z,23.80
2018-07-07T21:52:26.952Z,23.80
2018-07-07T21:54:55.783Z,23.80
2018-07-07T21:57:29.319Z,23.80
2018-07-07T21:59:57.453Z,23.70
2018-07-07T22:02:31.071Z,23.70
2018-07-07T22:05:04.639Z,23.70
2018-07-07T22:07:38.202Z,23.60
2018-07-07T22:10:06.362Z,23.60
2018-07-07T22:12:34.507Z,23.60
2018-07-07T22:15:02.646Z,23.50
2018-07-07T22:17:31.260Z,23.40
2018-07-07T22:19:59.398Z,23.40
2018-07-07T22:22:27.536Z,23.30
2018-07-07T22:24:55.695Z,23.30
2018-07-07T22:27:23.835Z,23.20
2018-07-07T22:29:51.965Z,23.10
2018-07-07T22:32:23.733Z,23.00
2018-07-07T22:34:52.181Z,22.90
2018-07-07T22:37:20.329Z,22.60
2018-07-07T22:39:48.553Z,22.60
2018-07-07T22:42:17.837Z,22.50
2018-07-07T22:44:47.622Z,22.40
2018-07-07T22:47:15.765Z,22.30
2018-07-07T22:49:43.924Z,22.30
2018-07-07T22:52:12.139Z,22.20
2018-07-07T22:54:40.309Z,22.10
2018-07-07T22:57:10.164Z,22.00
2018-07-07T22:59:38.293Z,21.90
2018-07-07T23:02:06.478Z,21.80
2018-07-07T23:04:34.605Z,21.70
2018-07-07T23:07:02.729Z,21.60
2018-07-07T23:09:30.866Z,21.50
2018-07-07T23:11:59.026Z,21.40
2018-07-07T23:14:27.155Z,21.30
2018-07-07T23:16:58.929Z,21.30
2018-07-07T23:19:27.285Z,21.20
2018-07-07T23:21:55.466Z,21.20
2018-07-07T23:24:23.633Z,21.10
2018-07-07T23:26:51.910Z,21.10
2018-07-07T23:29:20.045Z,21.00
2018-07-07T23:31:48.334Z,21.00
2018-07-07T23:34:16.461Z,21.00
2018-07-07T23:36:44.583Z,21.00
2018-07-07T23:39:12.732Z,21.00
2018-07-07T23:41:40.876Z,21.00
2018-07-07T23:44:08.985Z,21.00
2018-07-07T23:46:37.126Z,21.00
2018-07-07T23:49:05.345Z,21.00
2018-07-07T23:51:33.890Z,21.00
2018-07-07T23:54:02.035Z,20.90
2018-07-07T23:56:30.170Z,20.90
2018-07-07T23:58:59.538Z,20.80
